sensor_id;sensor_type;location;lat;lon;timestamp;temperature;humidity
23403;DHT22;11874;48.228;11.684;2023-02-03T00:00:40;5.40;99.90
23403;DHT22;11874;48.228;11.684;2023-02-03T00:03:08;5.50;99.90
23403;DHT22;11874;48.228;11.684;2023-02-03T00:05:36;5.50;99.90
23403;DHT22;11874;48.228;11.684;2023-02-03T00:08:06;5.40;99.90
23403;DHT22;11874;48.228;11.684;2023-02-03T00:10:35;5.40;99.90
23403;DHT22;11874;48.228;11.684;2023-02-03T00:13:07;5.40;99.90
23403;DHT22;11874;48.228;11.684;2023-02-03T00:15:35;5.50;99.90
23403;DHT22;11874;48.228;11.684;2023-02-03T00:18:03;5.40;99.90
23403;DHT22;11874;48.228;11.684;2023-02-03T00:20:30;5.50;99.90
23403;DHT22;11874;48.228;11.684;2023-02-03T00:23:03;5.50;99.90
23403;DHT22;11874;48.228;11.684;2023-02-03T00:25:31;5.50;99.90
23403;DHT22;11874;48.228;11.684;2023-02-03T00:27:59;5.50;99.90
23403;DHT22;11874;48.228;11.684;2023-02-03T00:30:29;5.50;99.90
23403;DHT22;11874;48.228;11.684;2023-02-03T00:32:57;5.50;99.90
23403;DHT22;11874;48.228;11.684;2023-02-03T00:35:25;5.50;99.90
23403;DHT22;11874;48.228;11.684;2023-02-03T00:37:53;5.50;99.90
23403;DHT22;11874;48.228;11.684;2023-02-03T00:40:23;5.50;99.90
23403;DHT22;11874;48.228;11.684;2023-02-03T00:42:52;5.50;99.90
23403;DHT22;11874;48.228;11.684;2023-02-03T00:45:20;5.50;99.90
23403;DHT22;11874;48.228;11.684;2023-02-03T00:47:50;5.00;99.90
23403;DHT22;11874;48.228;11.684;2023-02-03T00:50:17;5.50;99.90
23403;DHT22;11874;48.228;11.684;2023-02-03T00:52:45;5.50;99.90
23403;DHT22;11874;48.228;11.684;2023-02-03T00:55:13;5.50;99.90
23403;DHT22;11874;48.228;11.684;2023-02-03T00:57:41;5.50;99.90
23403;DHT22;11874;48.228;11.684;2023-02-03T01:00:10;5.50;99.90
23403;DHT22;11874;48.228;11.684;2023-02-03T01:02:38;5.50;99.90
23403;DHT22;11874;48.228;11.684;2023-02-03T01:05:08;5.50;99.90
23403;DHT22;11874;48.228;11.684;2023-02-03T01:07:36;5.50;99.90
23403;DHT22;11874;48.228;11.684;2023-02-03T01:10:05;5.60;99.90
23403;DHT22;11874;48.228;11.684;2023-02-03T01:12:33;5.50;99.90
23403;DHT22;11874;48.228;11.684;2023-02-03T01:15:01;5.60;99.90
23403;DHT22;11874;48.228;11.684;2023-02-03T01:17:29;5.50;99.90
23403;DHT22;11874;48.228;11.684;2023-02-03T01:19:56;5.60;99.90
23403;DHT22;11874;48.228;11.684;2023-02-03T01:22:28;5.50;99.90
23403;DHT22;11874;48.228;11.684;2023-02-03T01:24:56;5.60;99.90
23403;DHT22;11874;48.228;11.684;2023-02-03T01:27:24;5.70;99.90
23403;DHT22;11874;48.228;11.684;2023-02-03T01:29:51;5.60;99.90
23403;DHT22;11874;48.228;11.684;2023-02-03T01:32:19;5.60;99.90
23403;DHT22;11874;48.228;11.684;2023-02-03T01:34:47;5.60;99.90
23403;DHT22;11874;48.228;11.684;2023-02-03T01:37:15;5.50;99.90
23403;DHT22;11874;48.228;11.684;2023-02-03T01:39:44;5.60;99.90
23403;DHT22;11874;48.228;11.684;2023-02-03T01:42:13;5.30;99.90
23403;DHT22;11874;48.228;11.684;2023-02-03T01:44:43;5.50;99.90
23403;DHT22;11874;48.228;11.684;2023-02-03T01:47:24;5.60;99.90
23403;DHT22;11874;48.228;11.684;2023-02-03T01:50:03;5.60;99.90
23403;DHT22;11874;48.228;11.684;2023-02-03T01:52:33;5.60;99.90
23403;DHT22;11874;48.228;11.684;2023-02-03T01:55:05;5.50;99.90
23403;DHT22;11874;48.228;11.684;2023-02-03T01:57:37;5.60;99.90
23403;DHT22;11874;48.228;11.684;2023-02-03T02:00:07;5.60;99.90
23403;DHT22;11874;48.228;11.684;2023-02-03T02:02:35;5.60;99.90
23403;DHT22;11874;48.228;11.684;2023-02-03T02:05:06;5.60;99.90
23403;DHT22;11874;48.228;11.684;2023-02-03T02:07:36;5.60;99.90
23403;DHT22;11874;48.228;11.684;2023-02-03T02:10:07;5.60;99.90
23403;DHT22;11874;48.228;11.684;2023-02-03T02:12:35;5.60;99.90
23403;DHT22;11874;48.228;11.684;2023-02-03T02:15:04;5.60;99.90
23403;DHT22;11874;48.228;11.684;2023-02-03T02:17:55;5.60;99.90
23403;DHT22;11874;48.228;11.684;2023-02-03T02:20:46;5.60;99.90
23403;DHT22;11874;48.228;11.684;2023-02-03T02:23:35;5.60;99.90
23403;DHT22;11874;48.228;11.684;2023-02-03T02:26:29;5.60;99.90
23403;DHT22;11874;48.228;11.684;2023-02-03T02:29:27;5.60;99.90
23403;DHT22;11874;48.228;11.684;2023-02-03T02:32:19;5.60;99.90
23403;DHT22;11874;48.228;11.684;2023-02-03T02:35:01;5.50;99.90
23403;DHT22;11874;48.228;11.684;2023-02-03T02:37:39;5.60;99.90
23403;DHT22;11874;48.228;11.684;2023-02-03T02:40:20;5.60;99.90
23403;DHT22;11874;48.228;11.684;2023-02-03T02:43:01;5.60;99.90
23403;DHT22;11874;48.228;11.684;2023-02-03T02:45:38;5.60;99.90
23403;DHT22;11874;48.228;11.684;2023-02-03T02:48:14;5.70;99.90
23403;DHT22;11874;48.228;11.684;2023-02-03T02:50:45;5.70;99.90
23403;DHT22;11874;48.228;11.684;2023-02-03T02:53:14;5.70;99.90
23403;DHT22;11874;48.228;11.684;2023-02-03T02:55:45;5.70;99.90
23403;DHT22;11874;48.228;11.684;2023-02-03T02:58:15;5.70;99.90
23403;DHT22;11874;48.228;11.684;2023-02-03T03:00:44;5.70;99.90
23403;DHT22;11874;48.228;11.684;2023-02-03T03:03:16;5.70;99.90
23403;DHT22;11874;48.228;11.684;2023-02-03T03:05:49;5.70;99.90
23403;DHT22;11874;48.228;11.684;2023-02-03T03:08:22;5.70;99.90
23403;DHT22;11874;48.228;11.684;2023-02-03T03:10:52;5.70;99.90
23403;DHT22;11874;48.228;11.684;2023-02-03T03:13:24;5.70;99.90
23403;DHT22;11874;48.228;11.684;2023-02-03T03:15:55;5.70;99.90
23403;DHT22;11874;48.228;11.684;2023-02-03T03:18:28;5.70;99.90
23403;DHT22;11874;48.228;11.684;2023-02-03T03:20:58;5.70;99.90
23403;DHT22;11874;48.228;11.684;2023-02-03T03:23:33;5.70;99.90
23403;DHT22;11874;48.228;11.684;2023-02-03T03:26:10;5.80;99.90
23403;DHT22;11874;48.228;11.684;2023-02-03T03:28:44;5.70;99.90
23403;DHT22;11874;48.228;11.684;2023-02-03T03:31:14;5.70;99.90
23403;DHT22;11874;48.228;11.684;2023-02-03T03:33:44;5.70;99.90
23403;DHT22;11874;48.228;11.684;2023-02-03T03:36:19;5.70;99.90
23403;DHT22;11874;48.228;11.684;2023-02-03T03:38:54;5.70;99.90
23403;DHT22;11874;48.228;11.684;2023-02-03T03:41:29;5.70;99.90
23403;DHT22;11874;48.228;11.684;2023-02-03T03:44:02;5.70;99.90
23403;DHT22;11874;48.228;11.684;2023-02-03T03:46:35;5.70;99.90
23403;DHT22;11874;48.228;11.684;2023-02-03T03:49:09;5.70;99.90
23403;DHT22;11874;48.228;11.684;2023-02-03T03:51:40;5.70;99.90
23403;DHT22;11874;48.228;11.684;2023-02-03T03:54:13;5.80;99.90
23403;DHT22;11874;48.228;11.684;2023-02-03T03:56:45;5.70;99.90
23403;DHT22;11874;48.228;11.684;2023-02-03T03:59:16;5.70;99.90
23403;DHT22;11874;48.228;11.684;2023-02-03T04:01:47;5.70;99.90
23403;DHT22;11874;48.228;11.684;2023-02-03T04:04:20;5.80;99.90
23403;DHT22;11874;48.228;11.684;2023-02-03T04:06:52;5.60;99.90
23403;DHT22;11874;48.228;11.684;2023-02-03T04:09:20;5.70;99.90
23403;DHT22;11874;48.228;11.684;2023-02-03T04:11:48;5.80;99.90
23403;DHT22;11874;48.228;11.684;2023-02-03T04:14:27;5.80;99.90
23403;DHT22;11874;48.228;11.684;2023-02-03T04:16:56;5.80;99.90
23403;DHT22;11874;48.228;11.684;2023-02-03T04:19:26;5.70;99.90
23403;DHT22;11874;48.228;11.684;2023-02-03T04:21:54;5.70;99.90
23403;DHT22;11874;48.228;11.684;2023-02-03T04:24:22;5.80;99.90
23403;DHT22;11874;48.228;11.684;2023-02-03T04:26:49;5.80;99.90
23403;DHT22;11874;48.228;11.684;2023-02-03T04:29:17;5.70;99.90
23403;DHT22;11874;48.228;11.684;2023-02-03T04:31:45;5.80;99.90
23403;DHT22;11874;48.228;11.684;2023-02-03T04:34:13;5.80;99.90
23403;DHT22;11874;48.228;11.684;2023-02-03T04:36:42;5.80;99.90
23403;DHT22;11874;48.228;11.684;2023-02-03T04:39:10;5.80;99.90
23403;DHT22;11874;48.228;11.684;2023-02-03T04:41:38;5.80;99.90
23403;DHT22;11874;48.228;11.684;2023-02-03T04:44:06;5.70;99.90
23403;DHT22;11874;48.228;11.684;2023-02-03T04:46:34;5.70;99.90
23403;DHT22;11874;48.228;11.684;2023-02-03T04:49:02;5.70;99.90
23403;DHT22;11874;48.228;11.684;2023-02-03T04:51:29;5.80;99.90
23403;DHT22;11874;48.228;11.684;2023-02-03T04:53:59;5.70;99.90
23403;DHT22;11874;48.228;11.684;2023-02-03T04:56:26;5.80;99.90
23403;DHT22;11874;48.228;11.684;2023-02-03T04:58:54;5.80;99.90
23403;DHT22;11874;48.228;11.684;2023-02-03T05:01:22;5.80;99.90
23403;DHT22;11874;48.228;11.684;2023-02-03T05:03:50;5.80;99.90
23403;DHT22;11874;48.228;11.684;2023-02-03T05:06:21;5.70;99.90
23403;DHT22;11874;48.228;11.684;2023-02-03T05:08:50;5.70;99.90
23403;DHT22;11874;48.228;11.684;2023-02-03T05:11:19;5.70;99.90
23403;DHT22;11874;48.228;11.684;2023-02-03T05:13:47;5.70;99.90
23403;DHT22;11874;48.228;11.684;2023-02-03T05:16:15;5.70;99.90
23403;DHT22;11874;48.228;11.684;2023-02-03T05:18:43;5.70;99.90
23403;DHT22;11874;48.228;11.684;2023-02-03T05:21:11;5.70;99.90
23403;DHT22;11874;48.228;11.684;2023-02-03T05:23:38;5.70;99.90
23403;DHT22;11874;48.228;11.684;2023-02-03T05:26:06;5.70;99.90
23403;DHT22;11874;48.228;11.684;2023-02-03T05:28:35;5.70;99.90
23403;DHT22;11874;48.228;11.684;2023-02-03T05:31:04;5.60;99.90
23403;DHT22;11874;48.228;11.684;2023-02-03T05:33:32;5.70;99.90
23403;DHT22;11874;48.228;11.684;2023-02-03T05:36:00;5.70;99.90
23403;DHT22;11874;48.228;11.684;2023-02-03T05:38:28;5.70;99.90
23403;DHT22;11874;48.228;11.684;2023-02-03T05:40:55;5.60;99.90
23403;DHT22;11874;48.228;11.684;2023-02-03T05:43:42;5.70;99.90
23403;DHT22;11874;48.228;11.684;2023-02-03T05:46:10;5.70;99.90
23403;DHT22;11874;48.228;11.684;2023-02-03T05:48:38;5.60;99.90
23403;DHT22;11874;48.228;11.684;2023-02-03T05:51:06;5.60;99.90
23403;DHT22;11874;48.228;11.684;2023-02-03T05:53:34;5.70;99.90
23403;DHT22;11874;48.228;11.684;2023-02-03T05:56:02;5.70;99.90
23403;DHT22;11874;48.228;11.684;2023-02-03T05:58:29;5.70;99.90
23403;DHT22;11874;48.228;11.684;2023-02-03T06:00:59;5.70;99.90
23403;DHT22;11874;48.228;11.684;2023-02-03T06:03:26;5.70;99.90
23403;DHT22;11874;48.228;11.684;2023-02-03T06:05:54;5.70;99.90
23403;DHT22;11874;48.228;11.684;2023-02-03T06:08:22;5.70;99.90
23403;DHT22;11874;48.228;11.684;2023-02-03T06:10:57;5.70;99.90
23403;DHT22;11874;48.228;11.684;2023-02-03T06:13:25;5.70;99.90
23403;DHT22;11874;48.228;11.684;2023-02-03T06:15:54;5.70;99.90
23403;DHT22;11874;48.228;11.684;2023-02-03T06:18:23;5.70;99.90
23403;DHT22;11874;48.228;11.684;2023-02-03T06:20:51;5.70;99.90
23403;DHT22;11874;48.228;11.684;2023-02-03T06:23:19;5.70;99.90
23403;DHT22;11874;48.228;11.684;2023-02-03T06:25:48;5.70;99.90
23403;DHT22;11874;48.228;11.684;2023-02-03T06:28:16;5.60;99.90
23403;DHT22;11874;48.228;11.684;2023-02-03T06:30:44;5.70;99.90
23403;DHT22;11874;48.228;11.684;2023-02-03T06:33:12;5.70;99.90
23403;DHT22;11874;48.228;11.684;2023-02-03T06:35:41;5.70;99.90
23403;DHT22;11874;48.228;11.684;2023-02-03T06:38:09;5.70;99.90
23403;DHT22;11874;48.228;11.684;2023-02-03T06:40:37;5.70;99.90
23403;DHT22;11874;48.228;11.684;2023-02-03T06:43:05;5.70;99.90
23403;DHT22;11874;48.228;11.684;2023-02-03T06:45:33;5.70;99.90
23403;DHT22;11874;48.228;11.684;2023-02-03T06:48:01;5.70;99.90
23403;DHT22;11874;48.228;11.684;2023-02-03T06:50:29;5.70;99.90
23403;DHT22;11874;48.228;11.684;2023-02-03T06:52:58;6.10;99.90
23403;DHT22;11874;48.228;11.684;2023-02-03T06:55:26;5.70;99.90
23403;DHT22;11874;48.228;11.684;2023-02-03T06:57:54;5.70;99.90
23403;DHT22;11874;48.228;11.684;2023-02-03T07:00:22;5.70;99.90
23403;DHT22;11874;48.228;11.684;2023-02-03T07:02:55;5.70;99.90
23403;DHT22;11874;48.228;11.684;2023-02-03T07:05:24;5.70;99.90
23403;DHT22;11874;48.228;11.684;2023-02-03T07:07:53;5.70;99.90
23403;DHT22;11874;48.228;11.684;2023-02-03T07:10:22;5.70;99.90
23403;DHT22;11874;48.228;11.684;2023-02-03T07:12:50;5.70;99.90
23403;DHT22;11874;48.228;11.684;2023-02-03T07:15:18;5.70;99.90
23403;DHT22;11874;48.228;11.684;2023-02-03T07:17:47;5.90;99.90
23403;DHT22;11874;48.228;11.684;2023-02-03T07:20:21;5.70;99.90
23403;DHT22;11874;48.228;11.684;2023-02-03T07:22:53;5.70;99.90
23403;DHT22;11874;48.228;11.684;2023-02-03T07:25:23;5.70;99.90
23403;DHT22;11874;48.228;11.684;2023-02-03T07:27:51;5.70;99.90
23403;DHT22;11874;48.228;11.684;2023-02-03T07:30:19;5.80;99.90
23403;DHT22;11874;48.228;11.684;2023-02-03T07:32:47;5.70;99.90
23403;DHT22;11874;48.228;11.684;2023-02-03T07:35:16;5.70;99.90
23403;DHT22;11874;48.228;11.684;2023-02-03T07:37:44;5.80;99.90
23403;DHT22;11874;48.228;11.684;2023-02-03T07:40:12;5.80;99.90
23403;DHT22;11874;48.228;11.684;2023-02-03T07:42:42;5.80;99.90
23403;DHT22;11874;48.228;11.684;2023-02-03T07:45:12;5.80;99.90
23403;DHT22;11874;48.228;11.684;2023-02-03T07:47:40;5.80;99.90
23403;DHT22;11874;48.228;11.684;2023-02-03T07:50:09;5.80;99.90
23403;DHT22;11874;48.228;11.684;2023-02-03T07:52:38;5.80;99.90
23403;DHT22;11874;48.228;11.684;2023-02-03T07:55:07;5.80;99.90
23403;DHT22;11874;48.228;11.684;2023-02-03T07:57:35;5.80;99.90
23403;DHT22;11874;48.228;11.684;2023-02-03T08:00:05;5.80;99.90
23403;DHT22;11874;48.228;11.684;2023-02-03T08:02:33;5.90;99.90
23403;DHT22;11874;48.228;11.684;2023-02-03T08:05:01;5.90;99.90
23403;DHT22;11874;48.228;11.684;2023-02-03T08:07:29;5.80;99.90
23403;DHT22;11874;48.228;11.684;2023-02-03T08:09:57;5.90;99.90
23403;DHT22;11874;48.228;11.684;2023-02-03T08:12:25;5.90;99.90
23403;DHT22;11874;48.228;11.684;2023-02-03T08:14:52;5.90;99.90
23403;DHT22;11874;48.228;11.684;2023-02-03T08:17:22;6.30;99.90
23403;DHT22;11874;48.228;11.684;2023-02-03T08:19:49;6.50;99.90
23403;DHT22;11874;48.228;11.684;2023-02-03T08:22:17;5.90;99.90
23403;DHT22;11874;48.228;11.684;2023-02-03T08:24:46;6.20;99.90
23403;DHT22;11874;48.228;11.684;2023-02-03T08:27:15;6.10;99.90
23403;DHT22;11874;48.228;11.684;2023-02-03T08:29:43;6.10;99.90
23403;DHT22;11874;48.228;11.684;2023-02-03T08:32:14;6.10;99.90
23403;DHT22;11874;48.228;11.684;2023-02-03T08:34:44;6.10;99.90
23403;DHT22;11874;48.228;11.684;2023-02-03T08:37:14;6.20;99.90
23403;DHT22;11874;48.228;11.684;2023-02-03T08:39:42;6.10;99.90
23403;DHT22;11874;48.228;11.684;2023-02-03T08:42:10;6.10;99.90
23403;DHT22;11874;48.228;11.684;2023-02-03T08:44:38;6.50;99.90
23403;DHT22;11874;48.228;11.684;2023-02-03T08:47:06;5.80;99.90
23403;DHT22;11874;48.228;11.684;2023-02-03T08:49:34;6.10;99.90
23403;DHT22;11874;48.228;11.684;2023-02-03T08:52:06;6.40;99.90
23403;DHT22;11874;48.228;11.684;2023-02-03T08:54:35;6.10;99.90
23403;DHT22;11874;48.228;11.684;2023-02-03T08:57:03;6.60;99.90
23403;DHT22;11874;48.228;11.684;2023-02-03T08:59:33;6.20;99.90
23403;DHT22;11874;48.228;11.684;2023-02-03T09:02:01;5.90;99.90
23403;DHT22;11874;48.228;11.684;2023-02-03T09:04:30;6.20;99.90
23403;DHT22;11874;48.228;11.684;2023-02-03T09:06:59;5.90;99.90
23403;DHT22;11874;48.228;11.684;2023-02-03T09:09:29;6.30;99.90
23403;DHT22;11874;48.228;11.684;2023-02-03T09:11:57;6.20;99.90
23403;DHT22;11874;48.228;11.684;2023-02-03T09:14:28;6.60;99.90
23403;DHT22;11874;48.228;11.684;2023-02-03T09:16:57;6.20;99.90
23403;DHT22;11874;48.228;11.684;2023-02-03T09:19:25;6.30;99.90
23403;DHT22;11874;48.228;11.684;2023-02-03T09:21:53;6.80;99.90
23403;DHT22;11874;48.228;11.684;2023-02-03T09:24:23;6.30;99.90
23403;DHT22;11874;48.228;11.684;2023-02-03T09:26:52;6.30;99.90
23403;DHT22;11874;48.228;11.684;2023-02-03T09:29:20;6.30;99.90
23403;DHT22;11874;48.228;11.684;2023-02-03T09:31:49;5.90;99.90
23403;DHT22;11874;48.228;11.684;2023-02-03T09:34:19;6.30;99.90
23403;DHT22;11874;48.228;11.684;2023-02-03T09:36:47;6.70;99.90
23403;DHT22;11874;48.228;11.684;2023-02-03T09:39:15;6.80;99.90
23403;DHT22;11874;48.228;11.684;2023-02-03T09:42:00;6.40;99.90
23403;DHT22;11874;48.228;11.684;2023-02-03T09:44:37;6.40;99.90
23403;DHT22;11874;48.228;11.684;2023-02-03T09:47:11;6.40;99.90
23403;DHT22;11874;48.228;11.684;2023-02-03T09:49:42;6.40;99.90
23403;DHT22;11874;48.228;11.684;2023-02-03T09:52:14;6.40;99.90
23403;DHT22;11874;48.228;11.684;2023-02-03T09:54:49;6.50;99.90
23403;DHT22;11874;48.228;11.684;2023-02-03T09:57:23;6.50;99.90
23403;DHT22;11874;48.228;11.684;2023-02-03T09:59:52;6.30;99.90
23403;DHT22;11874;48.228;11.684;2023-02-03T10:02:28;6.60;99.90
23403;DHT22;11874;48.228;11.684;2023-02-03T10:05:02;6.60;99.90
23403;DHT22;11874;48.228;11.684;2023-02-03T10:07:37;6.60;99.90
23403;DHT22;11874;48.228;11.684;2023-02-03T10:10:15;6.90;99.90
23403;DHT22;11874;48.228;11.684;2023-02-03T10:16:06;6.60;99.90
23403;DHT22;11874;48.228;11.684;2023-02-03T10:18:40;6.60;99.90
23403;DHT22;11874;48.228;11.684;2023-02-03T10:21:11;6.70;99.90
23403;DHT22;11874;48.228;11.684;2023-02-03T10:23:40;6.90;99.90
23403;DHT22;11874;48.228;11.684;2023-02-03T10:26:15;6.60;99.90
23403;DHT22;11874;48.228;11.684;2023-02-03T10:28:52;6.70;99.90
23403;DHT22;11874;48.228;11.684;2023-02-03T10:31:22;6.70;99.90
23403;DHT22;11874;48.228;11.684;2023-02-03T10:33:58;7.40;99.90
23403;DHT22;11874;48.228;11.684;2023-02-03T10:36:34;6.70;99.90
23403;DHT22;11874;48.228;11.684;2023-02-03T10:39:15;6.70;99.90
23403;DHT22;11874;48.228;11.684;2023-02-03T10:41:45;6.70;99.90
23403;DHT22;11874;48.228;11.684;2023-02-03T10:44:15;6.70;99.90
23403;DHT22;11874;48.228;11.684;2023-02-03T10:46:43;6.80;99.90
23403;DHT22;11874;48.228;11.684;2023-02-03T10:49:12;6.80;99.90
23403;DHT22;11874;48.228;11.684;2023-02-03T10:51:46;6.40;99.90
23403;DHT22;11874;48.228;11.684;2023-02-03T10:54:29;6.80;99.90
23403;DHT22;11874;48.228;11.684;2023-02-03T10:57:02;6.80;99.90
23403;DHT22;11874;48.228;11.684;2023-02-03T10:59:34;6.90;99.90
23403;DHT22;11874;48.228;11.684;2023-02-03T11:02:07;6.90;99.90
23403;DHT22;11874;48.228;11.684;2023-02-03T11:04:36;6.90;99.90
23403;DHT22;11874;48.228;11.684;2023-02-03T11:07:05;7.40;99.90
23403;DHT22;11874;48.228;11.684;2023-02-03T11:09:35;6.90;99.90
23403;DHT22;11874;48.228;11.684;2023-02-03T11:12:11;7.00;99.90
23403;DHT22;11874;48.228;11.684;2023-02-03T11:14:43;7.00;99.90
23403;DHT22;11874;48.228;11.684;2023-02-03T11:17:16;7.10;99.90
23403;DHT22;11874;48.228;11.684;2023-02-03T11:19:46;7.30;99.90
23403;DHT22;11874;48.228;11.684;2023-02-03T11:22:26;7.00;99.90
23403;DHT22;11874;48.228;11.684;2023-02-03T11:24:55;7.00;99.90
23403;DHT22;11874;48.228;11.684;2023-02-03T11:27:24;7.00;99.90
23403;DHT22;11874;48.228;11.684;2023-02-03T11:30:09;7.00;99.90
23403;DHT22;11874;48.228;11.684;2023-02-03T11:32:39;7.00;99.90
23403;DHT22;11874;48.228;11.684;2023-02-03T11:35:15;6.90;99.90
23403;DHT22;11874;48.228;11.684;2023-02-03T11:37:45;7.20;99.90
23403;DHT22;11874;48.228;11.684;2023-02-03T11:40:31;7.00;99.90
23403;DHT22;11874;48.228;11.684;2023-02-03T11:43:02;7.00;99.90
23403;DHT22;11874;48.228;11.684;2023-02-03T11:45:37;7.10;99.90
23403;DHT22;11874;48.228;11.684;2023-02-03T11:48:17;7.10;99.90
23403;DHT22;11874;48.228;11.684;2023-02-03T11:50:50;7.10;99.90
23403;DHT22;11874;48.228;11.684;2023-02-03T11:53:26;7.10;99.90
23403;DHT22;11874;48.228;11.684;2023-02-03T11:56:08;7.10;99.90
23403;DHT22;11874;48.228;11.684;2023-02-03T12:02:04;7.10;99.90
23403;DHT22;11874;48.228;11.684;2023-02-03T12:04:53;7.10;99.90
23403;DHT22;11874;48.228;11.684;2023-02-03T12:07:42;7.50;99.90
23403;DHT22;11874;48.228;11.684;2023-02-03T12:10:25;7.00;99.90
23403;DHT22;11874;48.228;11.684;2023-02-03T12:12:59;7.00;99.90
23403;DHT22;11874;48.228;11.684;2023-02-03T12:15:48;7.00;99.90
23403;DHT22;11874;48.228;11.684;2023-02-03T12:18:27;7.00;99.90
23403;DHT22;11874;48.228;11.684;2023-02-03T12:21:11;7.20;99.90
23403;DHT22;11874;48.228;11.684;2023-02-03T12:23:50;7.10;99.90
23403;DHT22;11874;48.228;11.684;2023-02-03T12:26:24;6.80;99.90
23403;DHT22;11874;48.228;11.684;2023-02-03T12:28:58;7.50;99.90
23403;DHT22;11874;48.228;11.684;2023-02-03T12:31:33;6.80;99.90
23403;DHT22;11874;48.228;11.684;2023-02-03T12:34:12;7.00;99.90
23403;DHT22;11874;48.228;11.684;2023-02-03T12:36:46;7.00;99.90
23403;DHT22;11874;48.228;11.684;2023-02-03T12:39:18;7.10;99.90
23403;DHT22;11874;48.228;11.684;2023-02-03T12:41:51;7.30;99.90
23403;DHT22;11874;48.228;11.684;2023-02-03T12:44:24;6.90;99.90
23403;DHT22;11874;48.228;11.684;2023-02-03T12:46:59;7.10;99.90
23403;DHT22;11874;48.228;11.684;2023-02-03T12:49:37;6.80;99.90
23403;DHT22;11874;48.228;11.684;2023-02-03T12:52:13;7.20;99.90
23403;DHT22;11874;48.228;11.684;2023-02-03T12:54:47;7.30;99.90
23403;DHT22;11874;48.228;11.684;2023-02-03T12:57:20;7.50;99.90
23403;DHT22;11874;48.228;11.684;2023-02-03T12:59:54;7.00;99.90
23403;DHT22;11874;48.228;11.684;2023-02-03T13:02:26;8.00;99.90
23403;DHT22;11874;48.228;11.684;2023-02-03T13:05:02;7.30;99.90
23403;DHT22;11874;48.228;11.684;2023-02-03T13:07:36;7.30;99.90
23403;DHT22;11874;48.228;11.684;2023-02-03T13:10:15;7.60;99.90
23403;DHT22;11874;48.228;11.684;2023-02-03T13:12:48;7.30;99.90
23403;DHT22;11874;48.228;11.684;2023-02-03T13:15:23;7.30;99.90
23403;DHT22;11874;48.228;11.684;2023-02-03T13:17:55;7.40;99.90
23403;DHT22;11874;48.228;11.684;2023-02-03T13:20:27;7.40;99.90
23403;DHT22;11874;48.228;11.684;2023-02-03T13:22:57;7.40;99.90
23403;DHT22;11874;48.228;11.684;2023-02-03T13:25:30;7.40;99.90
23403;DHT22;11874;48.228;11.684;2023-02-03T13:28:13;7.00;99.90
23403;DHT22;11874;48.228;11.684;2023-02-03T13:31:09;7.30;99.90
23403;DHT22;11874;48.228;11.684;2023-02-03T13:34:02;7.30;99.90
23403;DHT22;11874;48.228;11.684;2023-02-03T13:39:34;7.30;99.90
23403;DHT22;11874;48.228;11.684;2023-02-03T13:42:15;7.30;99.90
23403;DHT22;11874;48.228;11.684;2023-02-03T13:44:47;7.30;99.90
23403;DHT22;11874;48.228;11.684;2023-02-03T13:47:20;7.20;99.90
23403;DHT22;11874;48.228;11.684;2023-02-03T13:49:52;7.20;99.90
23403;DHT22;11874;48.228;11.684;2023-02-03T13:52:25;7.30;99.90
23403;DHT22;11874;48.228;11.684;2023-02-03T13:54:56;7.50;99.90
23403;DHT22;11874;48.228;11.684;2023-02-03T13:57:31;6.70;99.90
23403;DHT22;11874;48.228;11.684;2023-02-03T14:00:02;7.60;99.90
23403;DHT22;11874;48.228;11.684;2023-02-03T14:02:51;7.20;99.90
23403;DHT22;11874;48.228;11.684;2023-02-03T14:05:43;7.10;99.90
23403;DHT22;11874;48.228;11.684;2023-02-03T14:08:48;7.10;99.90
23403;DHT22;11874;48.228;11.684;2023-02-03T14:11:40;7.00;99.90
23403;DHT22;11874;48.228;11.684;2023-02-03T14:14:39;7.10;99.90
23403;DHT22;11874;48.228;11.684;2023-02-03T14:20:43;7.20;99.90
23403;DHT22;11874;48.228;11.684;2023-02-03T14:23:17;7.20;99.90
23403;DHT22;11874;48.228;11.684;2023-02-03T14:25:48;6.80;99.90
23403;DHT22;11874;48.228;11.684;2023-02-03T14:28:21;7.00;99.90
23403;DHT22;11874;48.228;11.684;2023-02-03T14:31:04;6.90;99.90
23403;DHT22;11874;48.228;11.684;2023-02-03T14:34:07;6.90;99.90
23403;DHT22;11874;48.228;11.684;2023-02-03T14:37:16;7.10;99.90
23403;DHT22;11874;48.228;11.684;2023-02-03T14:40:07;7.10;99.90
23403;DHT22;11874;48.228;11.684;2023-02-03T14:43:02;7.30;99.90
23403;DHT22;11874;48.228;11.684;2023-02-03T14:46:15;7.10;99.90
23403;DHT22;11874;48.228;11.684;2023-02-03T14:49:03;7.10;99.90
23403;DHT22;11874;48.228;11.684;2023-02-03T14:51:48;7.30;99.90
23403;DHT22;11874;48.228;11.684;2023-02-03T14:54:28;7.10;99.90
23403;DHT22;11874;48.228;11.684;2023-02-03T14:57:11;7.10;99.90
23403;DHT22;11874;48.228;11.684;2023-02-03T14:59:47;7.10;99.90
23403;DHT22;11874;48.228;11.684;2023-02-03T15:02:22;7.10;99.90
23403;DHT22;11874;48.228;11.684;2023-02-03T15:04:52;7.10;99.90
23403;DHT22;11874;48.228;11.684;2023-02-03T15:07:41;7.10;99.90
23403;DHT22;11874;48.228;11.684;2023-02-03T15:10:14;7.10;99.90
23403;DHT22;11874;48.228;11.684;2023-02-03T15:12:46;7.10;99.90
23403;DHT22;11874;48.228;11.684;2023-02-03T15:15:25;7.00;99.90
23403;DHT22;11874;48.228;11.684;2023-02-03T15:17:57;7.10;99.90
23403;DHT22;11874;48.228;11.684;2023-02-03T15:20:33;7.70;99.90
23403;DHT22;11874;48.228;11.684;2023-02-03T15:23:01;7.10;99.90
23403;DHT22;11874;48.228;11.684;2023-02-03T15:25:30;7.10;99.90
23403;DHT22;11874;48.228;11.684;2023-02-03T15:28:12;7.10;99.90
23403;DHT22;11874;48.228;11.684;2023-02-03T15:30:43;8.30;99.90
23403;DHT22;11874;48.228;11.684;2023-02-03T15:33:14;7.00;99.90
23403;DHT22;11874;48.228;11.684;2023-02-03T15:35:48;7.70;99.90
23403;DHT22;11874;48.228;11.684;2023-02-03T15:38:19;6.70;99.90
23403;DHT22;11874;48.228;11.684;2023-02-03T15:40:50;7.50;99.90
23403;DHT22;11874;48.228;11.684;2023-02-03T15:43:22;8.00;99.90
23403;DHT22;11874;48.228;11.684;2023-02-03T15:45:56;6.90;99.90
23403;DHT22;11874;48.228;11.684;2023-02-03T15:48:31;7.60;99.90
23403;DHT22;11874;48.228;11.684;2023-02-03T15:51:07;8.10;99.90
23403;DHT22;11874;48.228;11.684;2023-02-03T15:53:44;7.00;99.90
23403;DHT22;11874;48.228;11.684;2023-02-03T15:56:19;7.80;99.90
23403;DHT22;11874;48.228;11.684;2023-02-03T15:58:48;6.60;99.90
23403;DHT22;11874;48.228;11.684;2023-02-03T16:01:20;7.60;99.90
23403;DHT22;11874;48.228;11.684;2023-02-03T16:03:54;7.00;99.90
23403;DHT22;11874;48.228;11.684;2023-02-03T16:06:25;7.00;99.90
23403;DHT22;11874;48.228;11.684;2023-02-03T16:08:56;7.00;99.90
23403;DHT22;11874;48.228;11.684;2023-02-03T16:11:31;6.90;99.90
23403;DHT22;11874;48.228;11.684;2023-02-03T16:14:00;6.70;99.90
23403;DHT22;11874;48.228;11.684;2023-02-03T16:16:34;7.00;99.90